Time;durP1;ratioP1;P1;durP2;ratioP2;P2;SDS_P1;SDS_P2;PMS_P1;PMS_P2;Temp;Humidity;BMP_temperature;BMP_pressure;BME280_temperature;BME280_humidity;BME280_pressure;Samples;Min_cycle;Max_cycle;Signal;HPM_P1;HPM_P2
2022/03/18 00:00:07;;;;;;;;;;;;;;;16.26;52.40;103582.31;1017592;29;782;-71
2022/03/18 00:00:57;;;;;;;;;;;;;;;16.25;52.71;103580.56;1016998;29;643;-71
2022/03/18 00:01:48;;;;;;;;;;;;;;;16.24;52.49;103578.81;1016552;29;714;-70
2022/03/18 00:02:39;;;;;;;;;;;;;;;16.23;52.55;103582.44;1017212;29;678;-70
2022/03/18 00:03:29;;;;;;;;;;;;;;;16.23;52.61;103577.06;1017180;29;651;-71
2022/03/18 00:04:19;;;;;;;;;;;;;;;16.23;52.59;103589.66;1016908;29;623;-70
2022/03/18 00:05:11;;;;;;;;;;;;;;;16.21;52.76;103587.03;1017603;29;667;-71
2022/03/18 00:06:02;;;;;;;;;;;;;;;16.22;52.76;103583.38;1017535;29;716;-71
2022/03/18 00:06:53;;;;;;;;;;;;;;;16.22;52.65;103594.16;1016889;29;1919;-71
2022/03/18 00:07:44;;;;;;;;;;;;;;;16.21;52.36;103589.72;1016963;29;670;-71
2022/03/18 00:08:35;;;;;;;;;;;;;;;16.20;52.59;103581.69;1013674;29;638;-71
2022/03/18 00:09:25;;;;;;;;;;;;;;;16.19;52.55;103586.22;1013565;29;698;-71
2022/03/18 00:10:16;;;;;;;;;;;;;;;16.19;52.67;103596.97;1013087;29;564;-71
2022/03/18 00:11:06;;;;;;;;;;;;;;;16.18;52.66;103587.16;1013654;29;694;-71
2022/03/18 00:11:57;;;;;;;;;;;;;;;16.18;52.59;103592.53;1013041;29;695;-73
2022/03/18 00:12:47;;;;;;;;;;;;;;;16.18;52.60;103594.34;1013593;29;667;-71
2022/03/18 00:13:38;;;;;;;;;;;;;;;16.17;52.51;103596.16;1013092;29;646;-71
2022/03/18 00:14:28;;;;;;;;;;;;;;;16.18;52.50;103589.84;1013536;29;694;-72
2022/03/18 00:15:19;;;;;;;;;;;;;;;16.18;52.02;103599.72;1012987;29;645;-72
2022/03/18 00:16:10;;;;;;;;;;;;;;;16.17;52.87;103601.53;1013620;29;659;-72
2022/03/18 00:17:00;;;;;;;;;;;;;;;16.15;52.86;103600.72;1013083;29;949;-72
2022/03/18 00:17:51;;;;;;;;;;;;;;;16.14;52.82;103600.78;1012557;29;1190;-72
2022/03/18 00:18:41;;;;;;;;;;;;;;;16.14;52.68;103600.78;1012925;29;675;-71
2022/03/18 00:19:33;;;;;;;;;;;;;;;16.13;52.64;103602.63;1013593;29;737;-71
2022/03/18 00:20:23;;;;;;;;;;;;;;;16.13;52.63;103608.00;1013097;29;703;-72
2022/03/18 00:21:14;;;;;;;;;;;;;;;16.12;52.64;103606.25;1013049;29;691;-71
2022/03/18 00:22:05;;;;;;;;;;;;;;;16.11;52.84;103609.03;1013516;29;633;-72
2022/03/18 00:22:55;;;;;;;;;;;;;;;16.10;52.77;103608.16;1013612;29;623;-72
2022/03/18 00:23:45;;;;;;;;;;;;;;;16.10;52.31;103609.97;1013064;29;706;-71
2022/03/18 00:24:36;;;;;;;;;;;;;;;16.09;52.53;103606.41;1013022;29;632;-72
2022/03/18 00:25:26;;;;;;;;;;;;;;;16.10;52.96;103608.16;1013605;29;678;-70
2022/03/18 00:26:17;;;;;;;;;;;;;;;16.09;52.51;103611.78;1013156;29;691;-71
2022/03/18 00:27:08;;;;;;;;;;;;;;;16.09;52.65;103616.28;1012935;29;1902;-71
2022/03/18 00:27:59;;;;;;;;;;;;;;;16.09;52.68;103605.53;1013018;29;663;-72
2022/03/18 00:28:49;;;;;;;;;;;;;;;16.08;52.47;103607.34;1015218;29;1604;-71
2022/03/18 00:29:41;;;;;;;;;;;;;;;16.08;52.35;103606.47;1016947;29;680;-71
2022/03/18 00:30:32;;;;;;;;;;;;;;;16.07;52.66;103612.78;1016846;29;1686;-69
2022/03/18 00:31:22;;;;;;;;;;;;;;;16.07;52.49;103608.28;1016902;29;646;-71
2022/03/18 00:32:13;;;;;;;;;;;;;;;16.06;52.72;103606.53;1016544;29;686;-70
2022/03/18 00:33:05;;;;;;;;;;;;;;;16.05;52.47;103611.97;1016670;29;1496;-70
2022/03/18 00:33:56;;;;;;;;;;;;;;;16.05;52.76;103610.16;1017010;29;702;-70
2022/03/18 00:34:46;;;;;;;;;;;;;;;16.05;52.87;103609.28;1016785;29;631;-70
2022/03/18 00:35:36;;;;;;;;;;;;;;;16.05;52.68;103609.28;1016970;29;694;-69
2022/03/18 00:36:27;;;;;;;;;;;;;;;16.03;52.58;103601.28;1016947;29;710;-69
2022/03/18 00:37:17;;;;;;;;;;;;;;;16.05;52.44;103609.28;1016907;29;643;-69
2022/03/18 00:38:08;;;;;;;;;;;;;;;16.04;53.05;103615.63;1017046;29;733;-70
2022/03/18 00:38:58;;;;;;;;;;;;;;;16.02;52.65;103610.28;1016932;29;694;-69
2022/03/18 00:39:49;;;;;;;;;;;;;;;16.01;52.52;103600.47;1016947;29;654;-71
2022/03/18 00:40:39;;;;;;;;;;;;;;;16.00;52.64;103601.41;1016923;29;710;-70
2022/03/18 00:41:30;;;;;;;;;;;;;;;16.01;52.59;103602.28;1016827;29;710;-70
2022/03/18 00:42:21;;;;;;;;;;;;;;;16.01;52.46;103607.66;1017037;29;658;-70
2022/03/18 00:43:12;;;;;;;;;;;;;;;16.00;52.76;103606.78;1016964;29;652;-68
2022/03/18 00:44:03;;;;;;;;;;;;;;;16.00;52.30;103609.47;1016971;29;650;-68
2022/03/18 00:44:53;;;;;;;;;;;;;;;15.99;52.69;103599.66;1016918;29;670;-68
2022/03/18 00:45:43;;;;;;;;;;;;;;;16.00;52.64;103596.03;1016866;29;678;-69
2022/03/18 00:46:34;;;;;;;;;;;;;;;15.99;52.56;103596.97;1016451;29;809;-68
2022/03/18 00:52:05;;;;;;;;;;;;;;;15.95;52.46;103598.03;1017314;29;701;-71
2022/03/18 00:52:55;;;;;;;;;;;;;;;15.95;52.70;103600.72;1016859;29;615;-71
2022/03/18 00:53:46;;;;;;;;;;;;;;;15.95;52.62;103600.72;1016870;29;651;-70
2022/03/18 00:54:36;;;;;;;;;;;;;;;15.96;52.68;103597.97;1016918;29;627;-70
2022/03/18 00:55:26;;;;;;;;;;;;;;;15.94;52.68;103602.53;1016922;29;702;-71
2022/03/18 00:56:17;;;;;;;;;;;;;;;15.94;52.92;103607.09;1016808;29;706;-70
2022/03/18 00:57:08;;;;;;;;;;;;;;;15.94;52.97;103613.31;1016894;29;595;-70
2022/03/18 00:57:58;;;;;;;;;;;;;;;15.94;52.94;103609.78;1016959;29;734;-70
2022/03/18 00:58:49;;;;;;;;;;;;;;;15.93;52.77;103614.28;1013486;29;1539;-70
2022/03/18 00:59:39;;;;;;;;;;;;;;;15.92;52.63;103615.22;1013009;29;644;-70
2022/03/18 01:00:30;;;;;;;;;;;;;;;15.93;52.68;103605.34;1012944;29;694;-69
2022/03/18 01:01:20;;;;;;;;;;;;;;;15.92;52.74;103614.34;1012786;29;777;-69
2022/03/18 01:02:10;;;;;;;;;;;;;;;15.92;52.86;103608.97;1013550;29;1153;-71
2022/03/18 01:03:01;;;;;;;;;;;;;;;15.91;53.04;103604.53;1013680;29;741;-71
2022/03/18 01:03:51;;;;;;;;;;;;;;;15.91;53.06;103617.97;1013724;29;647;-70
2022/03/18 01:04:42;;;;;;;;;;;;;;;15.90;52.41;103617.09;1013623;29;631;-70
2022/03/18 01:05:33;;;;;;;;;;;;;;;15.90;52.64;103613.53;1013683;29;686;-70
2022/03/18 01:06:24;;;;;;;;;;;;;;;15.89;53.01;103614.47;1013713;29;667;-69
2022/03/18 01:07:14;;;;;;;;;;;;;;;15.89;52.41;103609.09;1013645;29;1903;-70
2022/03/18 01:08:04;;;;;;;;;;;;;;;15.87;53.01;103605.59;1015483;29;1231;-70
2022/03/18 01:08:55;;;;;;;;;;;;;;;15.88;52.83;103607.34;1016928;29;674;-69
2022/03/18 01:09:45;;;;;;;;;;;;;;;15.87;53.08;103601.09;1018135;29;693;-70
2022/03/18 01:10:36;;;;;;;;;;;;;;;15.87;52.55;103600.22;1018174;29;845;-70
2022/03/18 01:11:27;;;;;;;;;;;;;;;15.88;52.66;103610.03;1017272;29;698;-70
2022/03/18 01:12:17;;;;;;;;;;;;;;;15.87;52.75;103606.47;1017077;29;636;-71
2022/03/18 01:13:08;;;;;;;;;;;;;;;15.87;53.03;103608.28;1017078;29;683;-71
2022/03/18 01:13:58;;;;;;;;;;;;;;;15.87;53.07;103610.97;1018117;29;722;-72
2022/03/18 01:14:48;;;;;;;;;;;;;;;15.87;52.54;103608.28;1018043;29;599;-71
2022/03/18 01:15:39;;;;;;;;;;;;;;;15.86;52.93;103618.16;1016478;29;714;-71
2022/03/18 01:16:29;;;;;;;;;;;;;;;15.84;52.76;103611.97;1017054;29;643;-71
2022/03/18 01:17:20;;;;;;;;;;;;;;;15.84;52.88;103601.22;1018134;29;636;-71
2022/03/18 01:18:10;;;;;;;;;;;;;;;15.85;52.91;103610.16;1016978;29;639;-71
2022/03/18 01:19:00;;;;;;;;;;;;;;;15.84;53.00;103600.34;1017938;29;717;-72
2022/03/18 01:19:51;;;;;;;;;;;;;;;15.84;52.99;103603.03;1018126;29;682;-72
2022/03/18 01:20:41;;;;;;;;;;;;;;;15.83;52.85;103604.84;1018104;29;602;-72
2022/03/18 01:21:32;;;;;;;;;;;;;;;15.81;52.59;103601.34;1017130;29;631;-72
2022/03/18 01:22:22;;;;;;;;;;;;;;;15.82;52.99;103607.59;1017034;29;635;-72
2022/03/18 01:23:13;;;;;;;;;;;;;;;15.83;53.09;103607.53;1017982;29;663;-72
2022/03/18 01:24:04;;;;;;;;;;;;;;;15.83;52.77;103607.53;1017038;29;686;-72
2022/03/18 01:24:54;;;;;;;;;;;;;;;15.82;52.83;103603.09;1016889;29;659;-71
2022/03/18 01:25:45;;;;;;;;;;;;;;;15.82;52.79;103608.47;1017050;29;738;-71
2022/03/18 01:26:35;;;;;;;;;;;;;;;15.81;52.85;103601.34;1016903;29;691;-69
2022/03/18 01:27:25;;;;;;;;;;;;;;;15.81;52.41;103604.03;1016963;29;703;-70
2022/03/18 01:28:16;;;;;;;;;;;;;;;15.79;52.74;103594.28;1017087;29;655;-71
2022/03/18 01:29:06;;;;;;;;;;;;;;;15.80;52.90;103598.72;1017597;29;607;-71
2022/03/18 01:29:57;;;;;;;;;;;;;;;15.80;52.49;103601.41;1017539;29;691;-72
2022/03/18 01:30:47;;;;;;;;;;;;;;;15.78;52.97;103600.59;1017545;29;690;-71
2022/03/18 01:31:38;;;;;;;;;;;;;;;15.78;52.95;103603.28;1017390;29;736;-71
2022/03/18 01:32:28;;;;;;;;;;;;;;;15.78;52.49;103604.16;1017565;29;678;-71
2022/03/18 01:33:18;;;;;;;;;;;;;;;15.77;52.81;103601.53;1017480;29;662;-71
2022/03/18 01:34:09;;;;;;;;;;;;;;;15.76;52.47;103606.06;1017419;29;643;-70
2022/03/18 01:35:00;;;;;;;;;;;;;;;15.77;52.59;103609.59;1017424;29;635;-71
2022/03/18 01:35:50;;;;;;;;;;;;;;;15.76;52.88;103602.50;1017391;29;713;-71
2022/03/18 01:36:40;;;;;;;;;;;;;;;15.75;53.05;103609.69;1017514;29;745;-71
2022/03/18 01:37:31;;;;;;;;;;;;;;;15.74;52.69;103609.75;1017498;29;765;-71
2022/03/18 01:38:21;;;;;;;;;;;;;;;15.75;52.46;103603.44;1017574;29;720;-71
2022/03/18 01:39:12;;;;;;;;;;;;;;;15.75;53.03;103604.31;1017499;29;729;-71
2022/03/18 01:40:03;;;;;;;;;;;;;;;15.74;52.97;103601.69;1017369;29;682;-70
2022/03/18 01:40:54;;;;;;;;;;;;;;;15.73;53.07;103603.50;1017660;29;602;-71
2022/03/18 01:41:44;;;;;;;;;;;;;;;15.72;52.68;103596.38;1017808;29;690;-71
2022/03/18 01:42:34;;;;;;;;;;;;;;;15.71;52.79;103600.00;1017930;29;651;-71
2022/03/18 01:43:25;;;;;;;;;;;;;;;15.72;52.81;103601.75;1017515;29;713;-72
2022/03/18 01:44:15;;;;;;;;;;;;;;;15.72;52.80;103595.50;1017279;29;1682;-71
2022/03/18 01:45:06;;;;;;;;;;;;;;;15.72;52.85;103607.13;1017457;29;631;-71
2022/03/18 01:45:56;;;;;;;;;;;;;;;15.72;52.99;103608.94;1017233;29;1578;-71
2022/03/18 01:46:46;;;;;;;;;;;;;;;15.72;52.85;103608.94;1017467;29;659;-71
2022/03/18 01:47:43;;;;;;;;;;;;;;;15.71;52.37;103613.44;1017443;29;620;-71
2022/03/18 01:48:34;;;;;;;;;;;;;;;15.69;53.09;103618.00;1017472;29;661;-70
2022/03/18 01:49:24;;;;;;;;;;;;;;;15.70;52.55;103616.19;1017489;29;749;-70
2022/03/18 01:50:15;;;;;;;;;;;;;;;15.69;52.56;103617.13;1017360;29;627;-69
2022/03/18 01:51:05;;;;;;;;;;;;;;;15.69;52.61;103622.50;1017439;29;663;-70
2022/03/18 01:51:56;;;;;;;;;;;;;;;15.70;52.73;103618.88;1017474;29;709;-70
2022/03/18 01:52:46;;;;;;;;;;;;;;;15.68;52.75;103626.13;1018036;29;678;-69
2022/03/18 01:53:37;;;;;;;;;;;;;;;15.69;53.00;103626.06;1017468;29;715;-70
2022/03/18 01:54:47;;;;;;;;;;;;;;;15.68;52.71;103626.13;1017413;29;615;-71
2022/03/18 01:55:37;;;;;;;;;;;;;;;15.68;52.97;103626.13;1017463;29;694;-71
2022/03/18 01:56:28;;;;;;;;;;;;;;;15.66;53.19;103628.88;1017364;29;686;-72
2022/03/18 01:57:18;;;;;;;;;;;;;;;15.67;53.14;103629.75;1017389;29;725;-72
2022/03/18 01:58:09;;;;;;;;;;;;;;;15.66;52.90;103630.69;1017390;29;650;-72
2022/03/18 01:58:59;;;;;;;;;;;;;;;15.66;52.75;103631.56;1016905;29;635;-71
2022/03/18 01:59:50;;;;;;;;;;;;;;;15.66;52.89;103626.19;1017375;29;638;-71
2022/03/18 02:00:40;;;;;;;;;;;;;;;15.66;52.69;103622.63;1017365;29;575;-72
2022/03/18 02:01:30;;;;;;;;;;;;;;;15.65;52.70;103620.88;1017359;29;615;-72
2022/03/18 02:02:21;;;;;;;;;;;;;;;15.65;52.64;103623.56;1017417;29;627;-72
2022/03/18 02:03:11;;;;;;;;;;;;;;;15.64;52.68;103620.00;1017305;29;670;-71
2022/03/18 02:04:02;;;;;;;;;;;;;;;15.63;52.61;103627.19;1017351;29;729;-71
2022/03/18 02:04:52;;;;;;;;;;;;;;;15.62;53.06;103625.44;1017283;29;627;-71
2022/03/18 02:05:43;;;;;;;;;;;;;;;15.63;52.92;103620.94;1017493;29;595;-71
2022/03/18 02:06:33;;;;;;;;;;;;;;;15.65;52.59;103628.94;1017446;29;677;-71
2022/03/18 02:07:23;;;;;;;;;;;;;;;15.63;52.67;103624.50;1017304;29;1976;-71
2022/03/18 02:08:14;;;;;;;;;;;;;;;15.61;52.75;103625.50;1017284;29;1273;-71
2022/03/18 02:09:04;;;;;;;;;;;;;;;15.61;52.69;103626.38;1017831;29;760;-71
2022/03/18 02:09:55;;;;;;;;;;;;;;;15.60;52.94;103630.00;1016830;29;710;-70
2022/03/18 02:10:45;;;;;;;;;;;;;;;15.60;52.78;103624.63;1017961;29;635;-70
2022/03/18 02:11:36;;;;;;;;;;;;;;;15.60;53.09;103627.31;1017669;29;723;-69
2022/03/18 02:12:26;;;;;;;;;;;;;;;15.60;53.29;103631.81;1016977;29;646;-69
2022/03/18 02:13:18;;;;;;;;;;;;;;;15.58;52.91;103626.53;1016881;29;698;-70
2022/03/18 02:14:08;;;;;;;;;;;;;;;15.57;53.02;103627.47;1017929;29;777;-72
2022/03/18 02:14:59;;;;;;;;;;;;;;;15.58;53.13;103622.97;1016897;29;645;-71
2022/03/18 02:15:49;;;;;;;;;;;;;;;15.57;52.90;103615.84;1017846;29;630;-71
2022/03/18 02:16:40;;;;;;;;;;;;;;;15.55;52.87;103621.28;1017866;29;686;-71
2022/03/18 02:17:30;;;;;;;;;;;;;;;15.56;52.92;103614.97;1017859;29;651;-71
2022/03/18 02:18:21;;;;;;;;;;;;;;;15.57;52.88;103618.53;1017923;29;711;-71
2022/03/18 02:19:11;;;;;;;;;;;;;;;15.57;52.79;103618.53;1017910;29;654;-71
2022/03/18 02:20:02;;;;;;;;;;;;;;;15.56;52.48;103612.28;1016851;29;762;-71
2022/03/18 02:20:52;;;;;;;;;;;;;;;15.56;52.90;103619.47;1016800;29;647;-71
2022/03/18 02:21:44;;;;;;;;;;;;;;;15.54;52.79;103619.50;1016902;29;1117;-71
2022/03/18 02:22:34;;;;;;;;;;;;;;;15.54;52.95;103627.56;1017890;29;672;-71
2022/03/18 02:23:24;;;;;;;;;;;;;;;15.54;53.10;103624.88;1016773;29;600;-71
2022/03/18 02:24:15;;;;;;;;;;;;;;;15.53;53.07;103620.44;1016793;29;580;-70
2022/03/18 02:25:09;;;;;;;;;;;;;;;15.54;52.57;103629.38;1016719;29;659;-70
2022/03/18 02:25:59;;;;;;;;;;;;;;;15.53;52.64;103625.81;1016621;29;753;-70
2022/03/18 02:26:50;;;;;;;;;;;;;;;15.52;53.13;103620.50;1016775;29;693;-72
2022/03/18 02:27:40;;;;;;;;;;;;;;;15.52;52.59;103625.88;1016642;29;680;-72
2022/03/18 02:28:30;;;;;;;;;;;;;;;15.52;52.71;103628.56;1016606;29;1705;-72
2022/03/18 02:29:21;;;;;;;;;;;;;;;15.51;52.65;103630.38;1017319;29;631;-72
2022/03/18 02:30:11;;;;;;;;;;;;;;;15.51;52.60;103622.31;1017205;29;631;-72
2022/03/18 02:31:02;;;;;;;;;;;;;;;15.51;52.99;103629.50;1017267;29;615;-72
2022/03/18 02:31:53;;;;;;;;;;;;;;;15.51;53.05;103624.13;1017112;29;678;-72
2022/03/18 02:32:43;;;;;;;;;;;;;;;15.49;52.75;103634.94;1017155;29;808;-72
2022/03/18 02:33:33;;;;;;;;;;;;;;;15.50;52.67;103628.63;1017279;29;673;-71
2022/03/18 02:34:24;;;;;;;;;;;;;;;15.50;52.46;103623.25;1017236;29;647;-72
2022/03/18 02:35:15;;;;;;;;;;;;;;;15.50;52.72;103627.75;1017186;29;658;-72
2022/03/18 02:36:05;;;;;;;;;;;;;;;15.49;52.88;103626.00;1017227;29;632;-72
2022/03/18 02:36:55;;;;;;;;;;;;;;;15.48;53.16;103638.56;1017188;29;647;-72
2022/03/18 02:37:46;;;;;;;;;;;;;;;15.46;52.91;103632.38;1017249;29;617;-72
2022/03/18 02:38:36;;;;;;;;;;;;;;;15.48;52.57;103635.00;1017258;29;662;-72
2022/03/18 02:39:27;;;;;;;;;;;;;;;15.46;53.02;103631.47;1017266;29;643;-73
2022/03/18 02:40:17;;;;;;;;;;;;;;;15.46;53.09;103640.44;1017122;29;640;-72
2022/03/18 02:41:08;;;;;;;;;;;;;;;15.46;53.12;103643.13;1017213;29;687;-72
2022/03/18 02:41:58;;;;;;;;;;;;;;;15.46;53.19;103642.25;1017191;29;710;-73
2022/03/18 02:42:48;;;;;;;;;;;;;;;15.47;53.17;103650.25;1016795;29;698;-72
2022/03/18 02:43:39;;;;;;;;;;;;;;;15.46;52.82;103644.94;1017063;29;1531;-71
2022/03/18 02:44:29;;;;;;;;;;;;;;;15.46;52.69;103645.81;1017711;29;671;-71
2022/03/18 02:45:20;;;;;;;;;;;;;;;15.45;53.33;103649.44;1017200;29;683;-71
2022/03/18 02:46:10;;;;;;;;;;;;;;;15.46;52.68;103647.63;1017774;29;631;-71
2022/03/18 02:47:01;;;;;;;;;;;;;;;15.43;52.73;103643.22;1017776;29;1894;-72
2022/03/18 02:47:51;;;;;;;;;;;;;;;15.45;53.13;103652.09;1017003;29;1646;-72
2022/03/18 02:48:41;;;;;;;;;;;;;;;15.46;53.02;103647.63;1017086;29;599;-72
2022/03/18 02:49:32;;;;;;;;;;;;;;;15.45;52.76;103654.81;1017221;29;678;-72
2022/03/18 02:50:23;;;;;;;;;;;;;;;15.44;53.19;103654.84;1017187;29;694;-71
2022/03/18 02:51:13;;;;;;;;;;;;;;;15.43;52.85;103653.09;1017181;29;659;-71
2022/03/18 02:52:04;;;;;;;;;;;;;;;15.43;52.71;103656.66;1017210;29;655;-71
2022/03/18 02:52:54;;;;;;;;;;;;;;;15.43;52.87;103653.97;1017184;29;631;-71
2022/03/18 02:53:45;;;;;;;;;;;;;;;15.42;52.96;103660.28;1017213;29;686;-72
2022/03/18 02:54:35;;;;;;;;;;;;;;;15.42;53.44;103654.03;1017174;29;630;-72
2022/03/18 02:55:26;;;;;;;;;;;;;;;15.41;53.29;103654.97;1017018;29;1586;-71
2022/03/18 02:56:16;;;;;;;;;;;;;;;15.41;52.78;103654.97;1017195;29;643;-72
2022/03/18 02:57:07;;;;;;;;;;;;;;;15.38;53.00;103658.69;1016653;29;640;-72
2022/03/18 02:57:57;;;;;;;;;;;;;;;15.39;52.74;103657.75;1017150;29;694;-70
2022/03/18 02:58:48;;;;;;;;;;;;;;;15.40;52.73;103658.63;1017227;29;630;-71
2022/03/18 02:59:38;;;;;;;;;;;;;;;15.40;52.52;103656.81;1017155;29;636;-71
2022/03/18 03:00:29;;;;;;;;;;;;;;;15.39;52.64;103660.44;1017115;29;891;-71
2022/03/18 03:01:20;;;;;;;;;;;;;;;15.40;53.17;103654.13;1017140;29;666;-71
2022/03/18 03:02:12;;;;;;;;;;;;;;;15.39;52.69;103654.19;1016965;29;1178;-70
2022/03/18 03:03:02;;;;;;;;;;;;;;;15.38;52.54;103656.00;1017142;29;627;-71
2022/03/18 03:03:52;;;;;;;;;;;;;;;15.37;52.53;103654.25;1017194;29;630;-71
2022/03/18 03:08:10;;;;;;;;;;;;;;;15.36;52.55;103673.13;1017543;29;1215;-71
2022/03/18 03:09:01;;;;;;;;;;;;;;;15.35;52.64;103666.88;1016588;29;686;-71
2022/03/18 03:09:51;;;;;;;;;;;;;;;15.34;52.92;103673.19;1016537;29;639;-71
2022/03/18 03:10:43;;;;;;;;;;;;;;;15.33;52.79;103679.50;1016728;29;674;-71
2022/03/18 03:11:34;;;;;;;;;;;;;;;15.36;52.97;103673.13;1016823;29;643;-71
2022/03/18 03:12:24;;;;;;;;;;;;;;;15.34;52.97;103672.31;1016774;29;714;-71
2022/03/18 03:13:15;;;;;;;;;;;;;;;15.34;53.17;103670.50;1017137;29;655;-71
2022/03/18 03:14:05;;;;;;;;;;;;;;;15.35;53.07;103677.63;1017815;29;801;-71
2022/03/18 03:14:55;;;;;;;;;;;;;;;15.33;52.61;103676.81;1016677;29;670;-72
2022/03/18 03:15:46;;;;;;;;;;;;;;;15.33;52.81;103681.28;1016640;29;699;-73
2022/03/18 03:16:36;;;;;;;;;;;;;;;15.32;52.55;103675.06;1017732;29;626;-72
2022/03/18 03:17:27;;;;;;;;;;;;;;;15.33;53.00;103678.59;1017725;29;666;-73
2022/03/18 03:18:17;;;;;;;;;;;;;;;15.33;52.65;103678.59;1013824;29;610;-72
2022/03/18 03:19:08;;;;;;;;;;;;;;;15.31;52.57;103680.47;1013312;29;653;-73
2022/03/18 03:19:58;;;;;;;;;;;;;;;15.31;53.00;103675.97;1013204;29;669;-72
2022/03/18 03:20:49;;;;;;;;;;;;;;;15.31;52.91;103681.34;1013298;29;707;-73
2022/03/18 03:21:40;;;;;;;;;;;;;;;15.31;52.90;103681.34;1012969;29;770;-72
2022/03/18 03:22:30;;;;;;;;;;;;;;;15.31;52.85;103685.84;1012271;29;611;-71
2022/03/18 03:23:23;;;;;;;;;;;;;;;15.31;53.17;103681.34;1013398;29;689;-71
2022/03/18 03:24:14;;;;;;;;;;;;;;;15.31;52.96;103685.84;1012293;29;659;-71
2022/03/18 03:25:04;;;;;;;;;;;;;;;15.30;52.77;103684.97;1012714;29;611;-70
2022/03/18 03:25:55;;;;;;;;;;;;;;;15.28;52.58;103687.72;1013272;29;651;-70
2022/03/18 03:26:45;;;;;;;;;;;;;;;15.28;53.09;103684.16;1012567;29;662;-70
2022/03/18 03:27:36;;;;;;;;;;;;;;;15.27;53.12;103674.34;1012329;29;647;-71
2022/03/18 03:28:26;;;;;;;;;;;;;;;15.28;52.65;103686.84;1013743;29;768;-70
2022/03/18 03:29:17;;;;;;;;;;;;;;;15.27;53.05;103685.09;1012900;29;682;-71
2022/03/18 03:30:07;;;;;;;;;;;;;;;15.27;53.00;103690.47;1013085;29;567;-71
2022/03/18 03:30:57;;;;;;;;;;;;;;;15.25;53.26;103682.47;1012642;29;675;-71
2022/03/18 03:31:48;;;;;;;;;;;;;;;15.28;53.17;103686.84;1013156;29;679;-71
2022/03/18 03:32:38;;;;;;;;;;;;;;;15.27;52.86;103685.09;1013001;29;643;-71
2022/03/18 03:33:29;;;;;;;;;;;;;;;15.25;53.21;103690.53;1013140;29;694;-71
2022/03/18 03:34:20;;;;;;;;;;;;;;;15.25;53.12;103685.16;1013022;29;638;-71
2022/03/18 03:35:10;;;;;;;;;;;;;;;15.26;52.99;103688.72;1013127;29;705;-71
2022/03/18 03:36:01;;;;;;;;;;;;;;;15.24;52.93;103679.84;1013115;29;690;-71
2022/03/18 03:36:52;;;;;;;;;;;;;;;15.24;53.15;103679.84;1013119;29;643;-71
2022/03/18 03:37:42;;;;;;;;;;;;;;;15.26;52.49;103686.03;1013112;29;706;-71
2022/03/18 03:38:33;;;;;;;;;;;;;;;15.25;52.96;103681.59;1012998;29;797;-71
2022/03/18 03:39:23;;;;;;;;;;;;;;;15.24;52.89;103691.47;1013091;29;647;-71
2022/03/18 03:40:13;;;;;;;;;;;;;;;15.23;53.12;103689.69;1013196;29;644;-70
2022/03/18 03:41:04;;;;;;;;;;;;;;;15.22;53.06;103689.78;1013175;29;789;-70
2022/03/18 03:41:55;;;;;;;;;;;;;;;15.21;52.76;103694.28;1013187;29;692;-70
2022/03/18 03:42:45;;;;;;;;;;;;;;;15.22;53.19;103687.09;1013082;29;726;-70
2022/03/18 03:43:36;;;;;;;;;;;;;;;15.22;52.64;103692.47;1015341;29;1587;-70
2022/03/18 03:44:26;;;;;;;;;;;;;;;15.21;52.90;103691.59;1016985;29;639;-70
2022/03/18 03:45:17;;;;;;;;;;;;;;;15.20;53.13;103687.16;1017049;29;686;-70
2022/03/18 03:46:07;;;;;;;;;;;;;;;15.19;52.54;103693.47;1016672;29;1014;-70
2022/03/18 03:46:58;;;;;;;;;;;;;;;15.20;52.99;103686.28;1016732;29;725;-70
2022/03/18 03:47:48;;;;;;;;;;;;;;;15.20;52.74;103691.66;1017728;29;670;-70
2022/03/18 03:48:38;;;;;;;;;;;;;;;15.23;53.29;103694.19;1017035;29;623;-69
2022/03/18 03:49:29;;;;;;;;;;;;;;;15.19;52.95;103692.59;1017049;29;710;-71
2022/03/18 03:50:19;;;;;;;;;;;;;;;15.20;52.95;103688.97;1016938;29;611;-70
2022/03/18 03:51:10;;;;;;;;;;;;;;;15.18;53.17;103691.72;1016720;29;686;-70
2022/03/18 03:52:00;;;;;;;;;;;;;;;15.18;52.88;103688.16;1016581;29;1642;-70
2022/03/18 03:52:51;;;;;;;;;;;;;;;15.18;52.43;103694.41;1017724;29;772;-70
2022/03/18 03:53:41;;;;;;;;;;;;;;;15.19;53.00;103687.22;1016859;29;1527;-71
2022/03/18 03:54:31;;;;;;;;;;;;;;;15.17;52.87;103695.34;1016998;29;602;-71
2022/03/18 03:55:22;;;;;;;;;;;;;;;15.16;52.75;103692.72;1016525;29;721;-71
2022/03/18 03:56:12;;;;;;;;;;;;;;;15.16;52.57;103687.34;1016946;29;623;-71
2022/03/18 03:57:03;;;;;;;;;;;;;;;15.16;52.54;103692.72;1017003;29;618;-71
2022/03/18 03:57:53;;;;;;;;;;;;;;;15.15;53.13;103686.47;1016395;29;858;-72
2022/03/18 03:58:43;;;;;;;;;;;;;;;15.14;52.48;103690.06;1017086;29;599;-72
2022/03/18 03:59:34;;;;;;;;;;;;;;;15.14;52.92;103695.44;1016881;29;710;-71
2022/03/18 04:00:25;;;;;;;;;;;;;;;15.14;53.04;103694.56;1016990;29;705;-69
2022/03/18 04:01:15;;;;;;;;;;;;;;;15.13;53.02;103692.81;1017036;29;637;-69
2022/03/18 04:02:05;;;;;;;;;;;;;;;15.13;53.12;103687.44;1016882;29;1281;-70
2022/03/18 04:02:56;;;;;;;;;;;;;;;15.14;52.90;103689.19;1017078;29;725;-70
2022/03/18 04:03:47;;;;;;;;;;;;;;;15.12;52.65;103697.31;1016985;29;653;-70
2022/03/18 04:04:37;;;;;;;;;;;;;;;15.13;52.69;103699.06;1017017;29;647;-69
2022/03/18 04:05:28;;;;;;;;;;;;;;;15.11;52.99;103698.25;1017045;29;734;-70
2022/03/18 04:06:22;;;;;;;;;;;;;;;15.11;52.68;103700.06;1017002;29;627;-71
2022/03/18 04:07:12;;;;;;;;;;;;;;;15.11;52.73;103700.06;1016921;29;1972;-70
2022/03/18 04:08:03;;;;;;;;;;;;;;;15.10;52.77;103704.56;1016840;29;1139;-70
2022/03/18 04:08:53;;;;;;;;;;;;;;;15.10;52.54;103706.38;1016561;29;643;-71
2022/03/18 04:09:44;;;;;;;;;;;;;;;15.09;53.19;103701.94;1016008;29;678;-70
2022/03/18 04:10:34;;;;;;;;;;;;;;;15.09;52.96;103701.94;1017504;29;714;-71
2022/03/18 04:11:25;;;;;;;;;;;;;;;15.08;52.75;103698.38;1016501;29;685;-72
2022/03/18 04:12:15;;;;;;;;;;;;;;;15.09;52.78;103701.94;1017528;29;635;-72
2022/03/18 04:13:06;;;;;;;;;;;;;;;15.10;52.63;103698.31;1016444;29;663;-71
2022/03/18 04:13:56;;;;;;;;;;;;;;;15.09;53.15;103707.28;1016874;29;686;-72
2022/03/18 04:14:47;;;;;;;;;;;;;;;15.08;53.01;103702.84;1016954;29;700;-71
2022/03/18 04:15:38;;;;;;;;;;;;;;;15.08;53.01;103706.41;1016992;29;655;-72
2022/03/18 04:16:28;;;;;;;;;;;;;;;15.10;52.40;103704.56;1017253;29;686;-72
2022/03/18 04:17:19;;;;;;;;;;;;;;;15.08;52.75;103706.41;1017228;29;650;-72
2022/03/18 04:18:09;;;;;;;;;;;;;;;15.07;52.96;103710.03;1017414;29;642;-72
2022/03/18 04:18:59;;;;;;;;;;;;;;;15.07;52.68;103712.72;1016965;29;721;-71
2022/03/18 04:19:50;;;;;;;;;;;;;;;15.06;52.41;103719.03;1016366;29;701;-71
2022/03/18 04:20:40;;;;;;;;;;;;;;;15.05;52.50;103711.91;1016967;29;677;-70
2022/03/18 04:21:31;;;;;;;;;;;;;;;15.05;52.60;103717.28;1017204;29;623;-71
2022/03/18 04:22:21;;;;;;;;;;;;;;;15.04;52.58;103720.03;1017019;29;651;-70
2022/03/18 04:23:12;;;;;;;;;;;;;;;15.03;53.02;103719.16;1017490;29;607;-71
2022/03/18 04:24:02;;;;;;;;;;;;;;;15.03;52.72;103723.66;1015938;29;639;-70
2022/03/18 04:24:53;;;;;;;;;;;;;;;15.03;52.93;103720.97;1016970;29;655;-69
2022/03/18 04:25:43;;;;;;;;;;;;;;;15.03;52.71;103729.03;1016935;29;666;-69
2022/03/18 04:26:33;;;;;;;;;;;;;;;15.03;53.10;103734.41;1016822;29;710;-70
2022/03/18 04:27:25;;;;;;;;;;;;;;;15.03;52.49;103729.03;1016880;29;1950;-70
2022/03/18 04:28:16;;;;;;;;;;;;;;;15.03;52.51;103732.59;1017035;29;634;-70
2022/03/18 04:29:08;;;;;;;;;;;;;;;15.02;53.02;103738.03;1017003;29;669;-71
2022/03/18 04:29:58;;;;;;;;;;;;;;;15.03;52.43;103734.41;1016961;29;655;-72
2022/03/18 04:30:48;;;;;;;;;;;;;;;15.03;52.69;103747.84;1016883;29;614;-71
2022/03/18 04:31:39;;;;;;;;;;;;;;;15.03;53.14;103747.84;1016994;29;698;-71
2022/03/18 04:32:29;;;;;;;;;;;;;;;15.01;53.04;103750.56;1016899;29;651;-71
2022/03/18 04:33:20;;;;;;;;;;;;;;;15.02;53.21;103743.41;1016946;29;623;-71
2022/03/18 04:34:11;;;;;;;;;;;;;;;15.01;52.32;103747.91;1016915;29;657;-71